createdAt,value
2017-05-26T00:02:00.683Z,16.60
2017-05-26T00:11:58.482Z,16.28
2017-05-26T00:16:54.567Z,16.39
2017-05-26T00:21:51.104Z,16.31
2017-05-26T00:26:49.198Z,16.12
2017-05-26T00:41:49.415Z,15.47
2017-05-26T00:46:46.862Z,15.68
2017-05-26T00:51:50.814Z,15.72
2017-05-26T01:01:48.942Z,15.49
2017-05-26T01:06:48.469Z,15.37
2017-05-26T01:11:45.988Z,15.33
2017-05-26T01:16:47.809Z,15.64
2017-05-26T01:41:56.093Z,15.67
2017-05-26T01:46:53.694Z,15.61
2017-05-26T01:51:51.064Z,15.72
2017-05-26T02:01:47.369Z,15.57
2017-05-26T02:06:43.474Z,15.64
2017-05-26T02:11:40.650Z,15.47
2017-05-26T02:16:37.689Z,15.35
2017-05-26T02:21:34.086Z,15.43
2017-05-26T02:31:30.956Z,15.25
2017-05-26T02:36:27.534Z,15.22
2017-05-26T02:41:23.747Z,14.89
2017-05-26T02:46:19.471Z,14.84
2017-05-26T02:51:15.823Z,14.70
2017-05-26T02:56:11.865Z,14.72
2017-05-26T03:01:07.634Z,14.48
2017-05-26T03:06:04.239Z,14.47
2017-05-26T03:16:03.038Z,14.15
2017-05-26T03:20:58.180Z,14.14
2017-05-26T03:25:54.254Z,14.28
2017-05-26T03:30:50.120Z,14.10
2017-05-26T03:35:45.881Z,14.28
2017-05-26T03:45:45.403Z,14.29
2017-05-26T03:50:40.535Z,14.30
2017-05-26T03:55:37.484Z,14.33
2017-05-26T04:00:33.344Z,14.53
2017-05-26T04:05:31.327Z,14.53
2017-05-26T04:10:26.889Z,14.54
2017-05-26T04:15:24.312Z,14.40
2017-05-26T04:20:20.176Z,14.29
2017-05-26T04:25:15.682Z,14.36
2017-05-26T04:30:12.868Z,14.91
2017-05-26T04:35:09.251Z,15.75
2017-05-26T04:40:05.651Z,16.02
2017-05-26T04:45:01.953Z,16.16
2017-05-26T04:49:58.571Z,16.36
2017-05-26T04:54:55.353Z,16.56
2017-05-26T04:59:53.233Z,17.52
2017-05-26T05:04:50.059Z,18.50
2017-05-26T05:09:46.755Z,18.20
2017-05-26T05:19:49.345Z,17.82
2017-05-26T05:29:46.937Z,17.65
2017-05-26T05:34:42.772Z,18.52
2017-05-26T05:39:38.775Z,18.99
2017-05-26T05:49:38.483Z,18.98
2017-05-26T05:54:37.112Z,19.02
2017-05-26T06:04:36.921Z,18.45
2017-05-26T06:09:34.752Z,18.07
2017-05-26T06:14:30.945Z,17.90
2017-05-26T06:29:38.322Z,18.03
2017-05-26T06:34:35.709Z,18.01
2017-05-26T06:39:36.890Z,17.94
2017-05-26T06:44:34.541Z,17.92
2017-05-26T06:54:30.865Z,18.13
2017-05-26T07:09:38.514Z,18.19
2017-05-26T07:14:41.819Z,18.33
2017-05-26T07:19:37.910Z,18.37
2017-05-26T07:24:34.902Z,18.49
2017-05-26T08:04:53.333Z,21.92
2017-05-26T08:09:51.702Z,22.32
2017-05-26T08:24:58.987Z,21.95
2017-05-26T08:29:55.929Z,22.96
2017-05-26T08:34:59.544Z,22.54
2017-05-26T08:39:56.608Z,22.98
2017-05-26T08:44:55.515Z,23.06
2017-05-26T08:49:51.443Z,22.35
2017-05-26T08:54:48.104Z,23.27
2017-05-26T08:59:47.990Z,23.23
2017-05-26T09:04:52.220Z,23.81
2017-05-26T09:09:51.845Z,23.66
2017-05-26T09:19:48.306Z,24.43
2017-05-26T09:24:45.161Z,23.93
2017-05-26T09:39:40.903Z,22.99
2017-05-26T09:44:39.937Z,23.21
2017-05-26T09:54:36.930Z,23.78
2017-05-26T09:59:32.830Z,23.58
2017-05-26T10:04:29.343Z,23.34
2017-05-26T10:09:24.543Z,23.32
2017-05-26T10:14:20.461Z,23.99
2017-05-26T10:19:20.806Z,25.06
2017-05-26T10:24:16.767Z,24.47
2017-05-26T10:34:15.850Z,25.33
2017-05-26T10:39:13.032Z,25.66
2017-05-26T10:44:09.644Z,25.59
2017-05-26T10:49:06.214Z,24.99
2017-05-26T10:54:02.822Z,25.65
2017-05-26T11:04:01.414Z,26.73
2017-05-26T11:09:01.265Z,26.75
2017-05-26T11:13:57.309Z,26.99
2017-05-26T11:23:56.256Z,28.42
2017-05-26T11:28:54.337Z,27.37
2017-05-26T11:33:50.213Z,27.14
2017-05-26T11:38:49.311Z,28.14
2017-05-26T11:43:45.324Z,27.93
2017-05-26T11:58:44.962Z,26.23
2017-05-26T12:03:44.022Z,26.71
2017-05-26T12:08:39.722Z,27.39
2017-05-26T12:13:36.192Z,27.44
2017-05-26T12:18:32.546Z,26.99
2017-05-26T12:23:31.284Z,26.95
2017-05-26T12:28:27.658Z,26.59
2017-05-26T12:33:23.067Z,26.09
2017-05-26T12:38:18.017Z,26.00
2017-05-26T12:43:13.638Z,26.59
2017-05-26T12:48:09.821Z,27.18
2017-05-26T12:53:06.093Z,27.78
2017-05-26T12:58:02.211Z,27.86
2017-05-26T13:02:58.388Z,27.93
2017-05-26T13:12:57.074Z,27.47
2017-05-26T13:17:52.669Z,26.43
2017-05-26T13:22:47.504Z,26.66
2017-05-26T13:27:42.924Z,26.56
2017-05-26T13:32:38.085Z,27.12
2017-05-26T13:37:36.480Z,27.33
2017-05-26T13:42:34.591Z,26.44
2017-05-26T13:52:32.524Z,26.19
2017-05-26T13:57:27.997Z,26.34
2017-05-26T14:02:25.321Z,26.29
2017-05-26T14:07:22.301Z,25.93
2017-05-26T14:12:20.681Z,25.75
2017-05-26T14:17:15.213Z,25.65
2017-05-26T14:22:11.620Z,25.51
2017-05-26T14:27:06.545Z,25.51
2017-05-26T14:32:02.094Z,25.40
2017-05-26T14:36:57.618Z,25.48
2017-05-26T14:41:53.555Z,25.65
2017-05-26T14:46:48.999Z,25.50
2017-05-26T14:51:45.392Z,25.46
2017-05-26T14:56:41.463Z,25.50
2017-05-26T15:01:36.876Z,25.48
2017-05-26T15:06:33.476Z,25.50
2017-05-26T15:11:29.738Z,25.85
2017-05-26T15:16:25.501Z,25.62
2017-05-26T15:21:21.430Z,25.73
2017-05-26T15:26:18.597Z,25.68
2017-05-26T15:31:14.106Z,25.47
2017-05-26T15:36:11.306Z,25.53
2017-05-26T15:41:06.799Z,25.51
2017-05-26T15:46:04.247Z,25.50
2017-05-26T15:50:59.580Z,25.47
2017-05-26T15:55:55.823Z,25.50
2017-05-26T16:00:51.832Z,25.66
2017-05-26T16:05:47.882Z,25.73
2017-05-26T16:10:44.535Z,25.50
2017-05-26T16:15:42.808Z,25.35
2017-05-26T16:20:38.299Z,25.43
2017-05-26T16:25:34.625Z,25.33
2017-05-26T16:30:31.392Z,25.35
2017-05-26T16:35:27.496Z,25.33
2017-05-26T16:40:24.167Z,25.22
2017-05-26T16:45:20.194Z,25.29
2017-05-26T16:50:16.904Z,25.08
2017-05-26T16:55:12.838Z,25.10
2017-05-26T17:00:08.857Z,25.11
2017-05-26T17:05:05.243Z,25.16
2017-05-26T17:10:02.024Z,25.01
2017-05-26T17:15:07.994Z,25.06
2017-05-26T17:30:12.309Z,24.91
2017-05-26T17:35:07.923Z,24.96
2017-05-26T17:40:05.548Z,24.92
2017-05-26T17:45:04.615Z,24.78
2017-05-26T17:50:00.343Z,24.76
2017-05-26T17:54:56.196Z,24.65
2017-05-26T17:59:52.858Z,24.48
2017-05-26T18:04:49.319Z,24.50
2017-05-26T18:14:45.092Z,24.38
2017-05-26T18:19:40.886Z,24.24
2017-05-26T18:24:36.885Z,24.17
2017-05-26T18:29:32.770Z,24.03
2017-05-26T18:34:29.374Z,24.05
2017-05-26T18:39:26.999Z,23.84
2017-05-26T18:44:22.232Z,23.83
2017-05-26T18:54:20.775Z,23.74
2017-05-26T18:59:18.079Z,23.59
2017-05-26T19:04:14.865Z,23.48
2017-05-26T19:09:10.168Z,23.37
2017-05-26T19:14:05.892Z,23.24
2017-05-26T19:29:02.689Z,22.88
2017-05-26T19:44:00.974Z,22.54
2017-05-26T19:48:58.318Z,22.47
2017-05-26T19:53:54.126Z,22.22
2017-05-26T19:58:50.560Z,22.14
2017-05-26T20:03:46.175Z,22.13
2017-05-26T20:08:44.166Z,21.99
2017-05-26T20:18:39.449Z,21.77
2017-05-26T20:23:37.568Z,21.72
2017-05-26T20:28:35.832Z,21.64
2017-05-26T20:33:35.925Z,21.58
2017-05-26T20:38:33.987Z,21.50
2017-05-26T20:43:29.847Z,21.40
2017-05-26T20:58:33.859Z,21.09
2017-05-26T21:03:32.456Z,21.06
2017-05-26T21:08:30.138Z,20.95
2017-05-26T21:13:29.265Z,20.75
2017-05-26T21:18:27.389Z,20.81
2017-05-26T21:33:26.324Z,20.52
2017-05-26T21:38:22.210Z,20.43
2017-05-26T21:43:19.314Z,20.32
2017-05-26T21:48:18.833Z,20.29
2017-05-26T21:53:13.507Z,20.28
2017-05-26T21:58:12.858Z,20.14
2017-05-26T22:03:08.079Z,20.04
2017-05-26T22:08:07.807Z,20.02
2017-05-26T22:18:03.952Z,19.89
2017-05-26T22:23:03.963Z,19.89
2017-05-26T22:28:00.125Z,19.84
2017-05-26T22:32:56.715Z,19.67
2017-05-26T22:37:53.973Z,19.69
2017-05-26T22:47:53.634Z,19.48
2017-05-26T22:57:50.649Z,19.44
2017-05-26T23:02:47.120Z,19.27
2017-05-26T23:07:44.059Z,19.15
2017-05-26T23:12:40.079Z,19.26
2017-05-26T23:27:41.480Z,18.99
2017-05-26T23:37:42.600Z,18.92
2017-05-26T23:42:39.670Z,18.81
2017-05-26T23:47:35.709Z,18.92
2017-05-26T23:52:31.952Z,18.80
2017-05-26T23:57:28.836Z,18.73
